sensor_id;sensor_type;location;lat;lon;timestamp;P1;durP1;ratioP1;P2;durP2;ratioP2
12792;SDS011;6460;42.684;23.260;2022-08-24T00:02:09;14.97;;;10.80;;
12792;SDS011;6460;42.684;23.260;2022-08-24T00:04:36;12.17;;;10.87;;
12792;SDS011;6460;42.684;23.260;2022-08-24T00:07:03;12.80;;;11.27;;
12792;SDS011;6460;42.684;23.260;2022-08-24T00:09:33;14.03;;;12.50;;
12792;SDS011;6460;42.684;23.260;2022-08-24T00:12:00;15.77;;;13.13;;
12792;SDS011;6460;42.684;23.260;2022-08-24T00:14:27;17.67;;;15.60;;
12792;SDS011;6460;42.684;23.260;2022-08-24T00:16:55;18.53;;;14.83;;
12792;SDS011;6460;42.684;23.260;2022-08-24T00:19:22;17.10;;;15.40;;
12792;SDS011;6460;42.684;23.260;2022-08-24T00:21:49;21.10;;;17.00;;
12792;SDS011;6460;42.684;23.260;2022-08-24T00:24:16;22.03;;;18.03;;
12792;SDS011;6460;42.684;23.260;2022-08-24T00:26:45;19.10;;;17.10;;
12792;SDS011;6460;42.684;23.260;2022-08-24T00:29:13;23.67;;;18.73;;
12792;SDS011;6460;42.684;23.260;2022-08-24T00:31:40;21.27;;;17.70;;
12792;SDS011;6460;42.684;23.260;2022-08-24T00:34:07;22.50;;;18.27;;
12792;SDS011;6460;42.684;23.260;2022-08-24T00:36:35;19.83;;;17.73;;
12792;SDS011;6460;42.684;23.260;2022-08-24T00:39:04;22.23;;;17.17;;
12792;SDS011;6460;42.684;23.260;2022-08-24T00:41:32;20.57;;;18.30;;
12792;SDS011;6460;42.684;23.260;2022-08-24T00:44:02;20.27;;;17.43;;
12792;SDS011;6460;42.684;23.260;2022-08-24T00:46:32;19.67;;;17.53;;
12792;SDS011;6460;42.684;23.260;2022-08-24T00:49:04;17.83;;;15.43;;
12792;SDS011;6460;42.684;23.260;2022-08-24T00:51:35;21.40;;;17.50;;
12792;SDS011;6460;42.684;23.260;2022-08-24T00:54:07;20.37;;;18.27;;
12792;SDS011;6460;42.684;23.260;2022-08-24T00:56:38;19.23;;;17.23;;
12792;SDS011;6460;42.684;23.260;2022-08-24T00:59:09;20.87;;;18.57;;
12792;SDS011;6460;42.684;23.260;2022-08-24T01:01:39;22.57;;;18.83;;
12792;SDS011;6460;42.684;23.260;2022-08-24T01:04:08;20.73;;;18.50;;
12792;SDS011;6460;42.684;23.260;2022-08-24T01:06:39;22.87;;;18.73;;
12792;SDS011;6460;42.684;23.260;2022-08-24T01:09:07;21.00;;;18.73;;
12792;SDS011;6460;42.684;23.260;2022-08-24T01:11:33;23.27;;;19.33;;
12792;SDS011;6460;42.684;23.260;2022-08-24T01:14:01;21.97;;;19.10;;
12792;SDS011;6460;42.684;23.260;2022-08-24T01:16:30;21.60;;;18.97;;
12792;SDS011;6460;42.684;23.260;2022-08-24T01:19:16;22.10;;;19.70;;
12792;SDS011;6460;42.684;23.260;2022-08-24T01:22:00;21.57;;;19.00;;
12792;SDS011;6460;42.684;23.260;2022-08-24T01:24:37;25.00;;;21.23;;
12792;SDS011;6460;42.684;23.260;2022-08-24T01:27:06;24.53;;;20.43;;
12792;SDS011;6460;42.684;23.260;2022-08-24T01:29:35;26.53;;;19.80;;
12792;SDS011;6460;42.684;23.260;2022-08-24T01:32:04;26.73;;;20.57;;
12792;SDS011;6460;42.684;23.260;2022-08-24T01:34:31;26.50;;;19.83;;
12792;SDS011;6460;42.684;23.260;2022-08-24T01:36:58;22.27;;;18.90;;
12792;SDS011;6460;42.684;23.260;2022-08-24T01:39:27;23.27;;;19.80;;
12792;SDS011;6460;42.684;23.260;2022-08-24T01:41:58;21.73;;;18.87;;
12792;SDS011;6460;42.684;23.260;2022-08-24T01:44:26;23.93;;;19.33;;
12792;SDS011;6460;42.684;23.260;2022-08-24T01:46:59;23.27;;;19.67;;
12792;SDS011;6460;42.684;23.260;2022-08-24T01:49:28;24.43;;;19.27;;
12792;SDS011;6460;42.684;23.260;2022-08-24T01:51:56;22.10;;;19.37;;
12792;SDS011;6460;42.684;23.260;2022-08-24T01:54:23;22.47;;;19.43;;
12792;SDS011;6460;42.684;23.260;2022-08-24T01:56:51;21.10;;;17.97;;
12792;SDS011;6460;42.684;23.260;2022-08-24T01:59:19;20.67;;;18.27;;
12792;SDS011;6460;42.684;23.260;2022-08-24T02:01:47;20.20;;;17.40;;
12792;SDS011;6460;42.684;23.260;2022-08-24T02:04:17;21.03;;;18.37;;
12792;SDS011;6460;42.684;23.260;2022-08-24T02:06:44;21.53;;;18.60;;
12792;SDS011;6460;42.684;23.260;2022-08-24T02:09:11;21.83;;;19.07;;
12792;SDS011;6460;42.684;23.260;2022-08-24T02:11:38;20.57;;;18.37;;
12792;SDS011;6460;42.684;23.260;2022-08-24T02:14:06;19.00;;;16.93;;
12792;SDS011;6460;42.684;23.260;2022-08-24T02:16:35;19.53;;;16.60;;
12792;SDS011;6460;42.684;23.260;2022-08-24T02:19:02;19.17;;;17.17;;
12792;SDS011;6460;42.684;23.260;2022-08-24T02:21:29;18.73;;;16.67;;
12792;SDS011;6460;42.684;23.260;2022-08-24T02:23:56;19.33;;;17.33;;
12792;SDS011;6460;42.684;23.260;2022-08-24T02:26:23;18.63;;;16.67;;
12792;SDS011;6460;42.684;23.260;2022-08-24T02:28:49;17.50;;;15.70;;
12792;SDS011;6460;42.684;23.260;2022-08-24T02:31:16;20.90;;;18.70;;
12792;SDS011;6460;42.684;23.260;2022-08-24T02:33:44;24.77;;;21.10;;
12792;SDS011;6460;42.684;23.260;2022-08-24T02:36:13;28.53;;;21.93;;
12792;SDS011;6460;42.684;23.260;2022-08-24T02:38:40;22.80;;;18.90;;
12792;SDS011;6460;42.684;23.260;2022-08-24T02:41:09;25.07;;;21.43;;
12792;SDS011;6460;42.684;23.260;2022-08-24T02:43:36;36.37;;;22.17;;
12792;SDS011;6460;42.684;23.260;2022-08-24T02:46:03;23.30;;;20.13;;
12792;SDS011;6460;42.684;23.260;2022-08-24T02:48:30;26.80;;;22.07;;
12792;SDS011;6460;42.684;23.260;2022-08-24T02:50:59;27.73;;;22.77;;
12792;SDS011;6460;42.684;23.260;2022-08-24T02:53:26;25.10;;;21.83;;
12792;SDS011;6460;42.684;23.260;2022-08-24T02:55:52;24.43;;;20.80;;
12792;SDS011;6460;42.684;23.260;2022-08-24T02:58:19;23.23;;;20.50;;
12792;SDS011;6460;42.684;23.260;2022-08-24T03:00:46;26.30;;;22.33;;
12792;SDS011;6460;42.684;23.260;2022-08-24T03:03:13;27.17;;;21.43;;
12792;SDS011;6460;42.684;23.260;2022-08-24T03:05:40;27.30;;;21.97;;
12792;SDS011;6460;42.684;23.260;2022-08-24T03:08:08;27.80;;;22.13;;
12792;SDS011;6460;42.684;23.260;2022-08-24T03:10:36;23.63;;;20.87;;
12792;SDS011;6460;42.684;23.260;2022-08-24T03:13:03;27.07;;;21.37;;
12792;SDS011;6460;42.684;23.260;2022-08-24T03:15:31;26.03;;;20.13;;
12792;SDS011;6460;42.684;23.260;2022-08-24T03:17:58;24.53;;;20.90;;
12792;SDS011;6460;42.684;23.260;2022-08-24T03:20:25;24.50;;;21.07;;
12792;SDS011;6460;42.684;23.260;2022-08-24T03:22:52;24.43;;;19.80;;
12792;SDS011;6460;42.684;23.260;2022-08-24T03:25:20;24.47;;;20.17;;
12792;SDS011;6460;42.684;23.260;2022-08-24T03:27:51;22.93;;;18.90;;
12792;SDS011;6460;42.684;23.260;2022-08-24T03:30:18;23.10;;;20.07;;
12792;SDS011;6460;42.684;23.260;2022-08-24T03:32:45;20.97;;;18.87;;
12792;SDS011;6460;42.684;23.260;2022-08-24T03:35:13;21.70;;;19.40;;
12792;SDS011;6460;42.684;23.260;2022-08-24T03:37:40;20.60;;;18.40;;
12792;SDS011;6460;42.684;23.260;2022-08-24T03:40:08;19.97;;;17.33;;
12792;SDS011;6460;42.684;23.260;2022-08-24T03:42:38;20.80;;;18.60;;
12792;SDS011;6460;42.684;23.260;2022-08-24T03:45:06;21.20;;;18.90;;
12792;SDS011;6460;42.684;23.260;2022-08-24T03:47:34;19.60;;;17.60;;
12792;SDS011;6460;42.684;23.260;2022-08-24T03:50:02;20.00;;;17.33;;
12792;SDS011;6460;42.684;23.260;2022-08-24T03:52:31;21.03;;;17.27;;
12792;SDS011;6460;42.684;23.260;2022-08-24T03:54:58;18.97;;;16.97;;
12792;SDS011;6460;42.684;23.260;2022-08-24T03:57:24;20.80;;;18.70;;
12792;SDS011;6460;42.684;23.260;2022-08-24T03:59:53;20.23;;;18.00;;
12792;SDS011;6460;42.684;23.260;2022-08-24T04:02:20;19.80;;;17.70;;
12792;SDS011;6460;42.684;23.260;2022-08-24T04:04:46;19.57;;;17.53;;
12792;SDS011;6460;42.684;23.260;2022-08-24T04:07:13;20.87;;;18.23;;
12792;SDS011;6460;42.684;23.260;2022-08-24T04:09:40;23.00;;;18.90;;
12792;SDS011;6460;42.684;23.260;2022-08-24T04:12:07;21.33;;;17.80;;
12792;SDS011;6460;42.684;23.260;2022-08-24T04:14:34;19.70;;;16.57;;
12792;SDS011;6460;42.684;23.260;2022-08-24T04:17:02;19.70;;;17.70;;
12792;SDS011;6460;42.684;23.260;2022-08-24T04:19:29;19.93;;;17.63;;
12792;SDS011;6460;42.684;23.260;2022-08-24T04:21:56;18.60;;;16.70;;
12792;SDS011;6460;42.684;23.260;2022-08-24T04:24:24;18.40;;;16.17;;
12792;SDS011;6460;42.684;23.260;2022-08-24T04:26:51;19.43;;;17.13;;
12792;SDS011;6460;42.684;23.260;2022-08-24T04:29:18;20.37;;;16.37;;
12792;SDS011;6460;42.684;23.260;2022-08-24T04:31:46;18.80;;;16.53;;
12792;SDS011;6460;42.684;23.260;2022-08-24T04:34:15;18.47;;;16.47;;
12792;SDS011;6460;42.684;23.260;2022-08-24T04:36:42;18.40;;;16.40;;
12792;SDS011;6460;42.684;23.260;2022-08-24T04:39:10;16.83;;;15.13;;
12792;SDS011;6460;42.684;23.260;2022-08-24T04:41:37;17.53;;;15.33;;
12792;SDS011;6460;42.684;23.260;2022-08-24T04:44:05;16.93;;;15.23;;
12792;SDS011;6460;42.684;23.260;2022-08-24T04:46:32;16.93;;;15.33;;
12792;SDS011;6460;42.684;23.260;2022-08-24T04:48:59;16.23;;;14.57;;
12792;SDS011;6460;42.684;23.260;2022-08-24T04:51:27;15.67;;;14.17;;
12792;SDS011;6460;42.684;23.260;2022-08-24T04:53:54;16.03;;;14.33;;
12792;SDS011;6460;42.684;23.260;2022-08-24T04:56:22;15.93;;;14.37;;
12792;SDS011;6460;42.684;23.260;2022-08-24T04:58:50;18.53;;;16.50;;
12792;SDS011;6460;42.684;23.260;2022-08-24T05:01:19;16.63;;;14.83;;
12792;SDS011;6460;42.684;23.260;2022-08-24T05:03:48;17.27;;;15.57;;
12792;SDS011;6460;42.684;23.260;2022-08-24T05:06:18;16.00;;;13.97;;
12792;SDS011;6460;42.684;23.260;2022-08-24T05:08:47;11.90;;;10.70;;
12792;SDS011;6460;42.684;23.260;2022-08-24T05:11:15;12.27;;;10.20;;
12792;SDS011;6460;42.684;23.260;2022-08-24T05:13:43;14.30;;;11.97;;
12792;SDS011;6460;42.684;23.260;2022-08-24T05:16:11;15.80;;;14.03;;
12792;SDS011;6460;42.684;23.260;2022-08-24T05:18:41;14.80;;;13.20;;
12792;SDS011;6460;42.684;23.260;2022-08-24T05:21:09;14.40;;;13.00;;
12792;SDS011;6460;42.684;23.260;2022-08-24T05:23:37;16.40;;;14.37;;
12792;SDS011;6460;42.684;23.260;2022-08-24T05:26:07;16.90;;;13.43;;
12792;SDS011;6460;42.684;23.260;2022-08-24T05:28:36;14.70;;;12.97;;
12792;SDS011;6460;42.684;23.260;2022-08-24T05:31:07;15.10;;;13.57;;
12792;SDS011;6460;42.684;23.260;2022-08-24T05:33:35;16.50;;;13.63;;
12792;SDS011;6460;42.684;23.260;2022-08-24T05:36:03;20.37;;;13.50;;
12792;SDS011;6460;42.684;23.260;2022-08-24T05:38:31;11.97;;;10.83;;
12792;SDS011;6460;42.684;23.260;2022-08-24T05:41:02;12.20;;;10.87;;
12792;SDS011;6460;42.684;23.260;2022-08-24T05:43:31;12.13;;;9.70;;
12792;SDS011;6460;42.684;23.260;2022-08-24T05:45:58;10.60;;;9.23;;
12792;SDS011;6460;42.684;23.260;2022-08-24T05:48:25;10.00;;;8.30;;
12792;SDS011;6460;42.684;23.260;2022-08-24T05:50:52;9.10;;;8.20;;
12792;SDS011;6460;42.684;23.260;2022-08-24T05:53:19;10.93;;;9.07;;
12792;SDS011;6460;42.684;23.260;2022-08-24T05:55:46;9.87;;;8.43;;
12792;SDS011;6460;42.684;23.260;2022-08-24T05:58:13;9.80;;;8.57;;
12792;SDS011;6460;42.684;23.260;2022-08-24T06:00:41;8.37;;;7.50;;
12792;SDS011;6460;42.684;23.260;2022-08-24T06:03:10;7.93;;;6.90;;
12792;SDS011;6460;42.684;23.260;2022-08-24T06:05:38;8.27;;;6.53;;
12792;SDS011;6460;42.684;23.260;2022-08-24T06:08:06;6.80;;;5.83;;
12792;SDS011;6460;42.684;23.260;2022-08-24T06:10:38;8.00;;;6.87;;
12792;SDS011;6460;42.684;23.260;2022-08-24T06:13:07;8.27;;;7.03;;
12792;SDS011;6460;42.684;23.260;2022-08-24T06:15:35;7.50;;;6.60;;
12792;SDS011;6460;42.684;23.260;2022-08-24T06:18:04;9.40;;;8.40;;
12792;SDS011;6460;42.684;23.260;2022-08-24T06:20:32;8.93;;;8.10;;
12792;SDS011;6460;42.684;23.260;2022-08-24T06:23:02;8.60;;;7.80;;
12792;SDS011;6460;42.684;23.260;2022-08-24T06:25:29;8.27;;;7.47;;
12792;SDS011;6460;42.684;23.260;2022-08-24T06:28:13;9.57;;;7.13;;
12792;SDS011;6460;42.684;23.260;2022-08-24T06:30:40;8.70;;;7.00;;
12792;SDS011;6460;42.684;23.260;2022-08-24T06:33:09;7.67;;;6.90;;
12792;SDS011;6460;42.684;23.260;2022-08-24T06:35:36;7.47;;;6.77;;
12792;SDS011;6460;42.684;23.260;2022-08-24T06:38:03;7.37;;;6.70;;
12792;SDS011;6460;42.684;23.260;2022-08-24T06:40:30;7.73;;;6.93;;
12792;SDS011;6460;42.684;23.260;2022-08-24T06:43:00;9.90;;;9.00;;
12792;SDS011;6460;42.684;23.260;2022-08-24T06:45:28;11.60;;;10.50;;
12792;SDS011;6460;42.684;23.260;2022-08-24T06:47:56;11.40;;;10.30;;
12792;SDS011;6460;42.684;23.260;2022-08-24T06:50:25;11.77;;;10.60;;
12792;SDS011;6460;42.684;23.260;2022-08-24T06:52:53;9.63;;;8.63;;
12792;SDS011;6460;42.684;23.260;2022-08-24T06:55:20;9.63;;;7.63;;
12792;SDS011;6460;42.684;23.260;2022-08-24T06:57:47;6.73;;;6.13;;
12792;SDS011;6460;42.684;23.260;2022-08-24T07:00:15;7.30;;;6.60;;
12792;SDS011;6460;42.684;23.260;2022-08-24T07:02:43;7.73;;;6.73;;
12792;SDS011;6460;42.684;23.260;2022-08-24T07:05:11;10.10;;;9.17;;
12792;SDS011;6460;42.684;23.260;2022-08-24T07:07:40;7.80;;;7.00;;
12792;SDS011;6460;42.684;23.260;2022-08-24T07:10:07;9.97;;;7.23;;
12792;SDS011;6460;42.684;23.260;2022-08-24T07:12:35;7.80;;;7.10;;
12792;SDS011;6460;42.684;23.260;2022-08-24T07:15:03;8.13;;;7.30;;
12792;SDS011;6460;42.684;23.260;2022-08-24T07:17:30;8.37;;;7.30;;
12792;SDS011;6460;42.684;23.260;2022-08-24T07:19:57;8.10;;;6.57;;
12792;SDS011;6460;42.684;23.260;2022-08-24T07:22:24;7.37;;;6.37;;
12792;SDS011;6460;42.684;23.260;2022-08-24T07:24:52;7.00;;;6.30;;
12792;SDS011;6460;42.684;23.260;2022-08-24T07:27:19;11.10;;;7.40;;
12792;SDS011;6460;42.684;23.260;2022-08-24T07:29:47;7.93;;;6.33;;
12792;SDS011;6460;42.684;23.260;2022-08-24T07:32:14;8.53;;;6.70;;
12792;SDS011;6460;42.684;23.260;2022-08-24T07:34:41;7.00;;;6.40;;
12792;SDS011;6460;42.684;23.260;2022-08-24T07:37:08;7.90;;;7.00;;
12792;SDS011;6460;42.684;23.260;2022-08-24T07:39:34;7.90;;;7.10;;
12792;SDS011;6460;42.684;23.260;2022-08-24T07:42:03;7.63;;;6.93;;
12792;SDS011;6460;42.684;23.260;2022-08-24T07:44:30;7.83;;;6.77;;
12792;SDS011;6460;42.684;23.260;2022-08-24T07:46:57;7.83;;;6.63;;
12792;SDS011;6460;42.684;23.260;2022-08-24T07:49:24;7.47;;;6.73;;
12792;SDS011;6460;42.684;23.260;2022-08-24T07:51:50;7.40;;;6.70;;
12792;SDS011;6460;42.684;23.260;2022-08-24T07:54:18;7.77;;;6.70;;
12792;SDS011;6460;42.684;23.260;2022-08-24T07:56:45;8.07;;;6.87;;
12792;SDS011;6460;42.684;23.260;2022-08-24T07:59:14;8.33;;;7.23;;
12792;SDS011;6460;42.684;23.260;2022-08-24T08:01:41;7.70;;;6.17;;
12792;SDS011;6460;42.684;23.260;2022-08-24T08:04:08;7.47;;;6.77;;
12792;SDS011;6460;42.684;23.260;2022-08-24T08:06:35;8.70;;;6.70;;
12792;SDS011;6460;42.684;23.260;2022-08-24T08:09:02;7.00;;;6.30;;
12792;SDS011;6460;42.684;23.260;2022-08-24T08:11:30;10.10;;;6.80;;
12792;SDS011;6460;42.684;23.260;2022-08-24T08:13:57;7.10;;;6.50;;
12792;SDS011;6460;42.684;23.260;2022-08-24T08:16:25;7.40;;;6.70;;
12792;SDS011;6460;42.684;23.260;2022-08-24T08:18:52;10.17;;;7.00;;
12792;SDS011;6460;42.684;23.260;2022-08-24T08:21:19;7.83;;;6.60;;
12792;SDS011;6460;42.684;23.260;2022-08-24T08:24:04;6.87;;;6.13;;
12792;SDS011;6460;42.684;23.260;2022-08-24T08:26:40;9.77;;;6.67;;
12792;SDS011;6460;42.684;23.260;2022-08-24T08:29:08;6.90;;;6.03;;
12792;SDS011;6460;42.684;23.260;2022-08-24T08:31:39;6.23;;;5.10;;
12792;SDS011;6460;42.684;23.260;2022-08-24T08:34:06;6.97;;;5.73;;
12792;SDS011;6460;42.684;23.260;2022-08-24T08:36:34;5.97;;;5.37;;
12792;SDS011;6460;42.684;23.260;2022-08-24T08:39:03;6.73;;;5.53;;
12792;SDS011;6460;42.684;23.260;2022-08-24T08:41:42;6.20;;;5.57;;
12792;SDS011;6460;42.684;23.260;2022-08-24T08:44:26;6.23;;;5.63;;
12792;SDS011;6460;42.684;23.260;2022-08-24T08:47:10;6.37;;;5.77;;
12792;SDS011;6460;42.684;23.260;2022-08-24T08:49:53;6.47;;;5.80;;
12792;SDS011;6460;42.684;23.260;2022-08-24T08:52:32;7.40;;;5.77;;
12792;SDS011;6460;42.684;23.260;2022-08-24T08:55:23;7.00;;;5.40;;
12792;SDS011;6460;42.684;23.260;2022-08-24T08:58:04;6.10;;;5.43;;
12792;SDS011;6460;42.684;23.260;2022-08-24T09:00:46;5.93;;;5.40;;
12792;SDS011;6460;42.684;23.260;2022-08-24T09:06:34;4.93;;;4.43;;
12792;SDS011;6460;42.684;23.260;2022-08-24T09:09:19;5.43;;;4.53;;
12792;SDS011;6460;42.684;23.260;2022-08-24T09:12:00;5.87;;;4.30;;
12792;SDS011;6460;42.684;23.260;2022-08-24T09:14:40;5.97;;;4.20;;
12792;SDS011;6460;42.684;23.260;2022-08-24T09:17:27;7.80;;;4.20;;
12792;SDS011;6460;42.684;23.260;2022-08-24T09:20:18;5.97;;;5.10;;
12792;SDS011;6460;42.684;23.260;2022-08-24T09:22:59;6.17;;;5.10;;
12792;SDS011;6460;42.684;23.260;2022-08-24T09:25:36;5.00;;;4.43;;
12792;SDS011;6460;42.684;23.260;2022-08-24T09:28:13;7.53;;;5.17;;
12792;SDS011;6460;42.684;23.260;2022-08-24T09:30:55;7.00;;;5.00;;
12792;SDS011;6460;42.684;23.260;2022-08-24T09:33:36;7.50;;;4.57;;
12792;SDS011;6460;42.684;23.260;2022-08-24T09:36:10;6.47;;;4.70;;
12792;SDS011;6460;42.684;23.260;2022-08-24T09:38:49;5.27;;;4.57;;
12792;SDS011;6460;42.684;23.260;2022-08-24T09:44:31;5.43;;;4.93;;
12792;SDS011;6460;42.684;23.260;2022-08-24T09:50:25;8.73;;;7.83;;
12792;SDS011;6460;42.684;23.260;2022-08-24T09:56:21;5.37;;;4.70;;
12792;SDS011;6460;42.684;23.260;2022-08-24T09:59:18;5.10;;;4.60;;
12792;SDS011;6460;42.684;23.260;2022-08-24T10:02:04;5.40;;;4.90;;
12792;SDS011;6460;42.684;23.260;2022-08-24T10:04:49;5.87;;;4.80;;
12792;SDS011;6460;42.684;23.260;2022-08-24T10:07:26;6.57;;;5.13;;
12792;SDS011;6460;42.684;23.260;2022-08-24T10:10:02;6.23;;;5.50;;
12792;SDS011;6460;42.684;23.260;2022-08-24T10:12:50;6.37;;;5.17;;
12792;SDS011;6460;42.684;23.260;2022-08-24T10:15:30;5.00;;;4.50;;
12792;SDS011;6460;42.684;23.260;2022-08-24T10:18:13;5.67;;;5.17;;
12792;SDS011;6460;42.684;23.260;2022-08-24T10:20:53;6.73;;;5.67;;
12792;SDS011;6460;42.684;23.260;2022-08-24T10:23:38;6.03;;;5.27;;
12792;SDS011;6460;42.684;23.260;2022-08-24T10:26:18;5.90;;;5.33;;
12792;SDS011;6460;42.684;23.260;2022-08-24T10:31:58;5.57;;;5.07;;
12792;SDS011;6460;42.684;23.260;2022-08-24T10:34:40;8.60;;;5.53;;
12792;SDS011;6460;42.684;23.260;2022-08-24T10:37:32;6.50;;;4.73;;
12792;SDS011;6460;42.684;23.260;2022-08-24T10:40:15;7.13;;;5.20;;
12792;SDS011;6460;42.684;23.260;2022-08-24T10:43:02;6.43;;;5.10;;
12792;SDS011;6460;42.684;23.260;2022-08-24T10:55:18;7.50;;;5.27;;
12792;SDS011;6460;42.684;23.260;2022-08-24T10:57:50;7.37;;;5.47;;
12792;SDS011;6460;42.684;23.260;2022-08-24T11:00:31;5.23;;;4.83;;
12792;SDS011;6460;42.684;23.260;2022-08-24T11:03:06;5.40;;;4.90;;
12792;SDS011;6460;42.684;23.260;2022-08-24T11:05:36;7.80;;;5.03;;
12792;SDS011;6460;42.684;23.260;2022-08-24T11:08:07;7.20;;;5.27;;
12792;SDS011;6460;42.684;23.260;2022-08-24T11:10:38;5.03;;;4.63;;
12792;SDS011;6460;42.684;23.260;2022-08-24T11:13:13;5.93;;;5.37;;
12792;SDS011;6460;42.684;23.260;2022-08-24T11:15:47;6.73;;;5.20;;
12792;SDS011;6460;42.684;23.260;2022-08-24T11:18:17;7.27;;;4.97;;
12792;SDS011;6460;42.684;23.260;2022-08-24T11:20:47;5.40;;;4.90;;
12792;SDS011;6460;42.684;23.260;2022-08-24T11:23:16;6.70;;;5.23;;
12792;SDS011;6460;42.684;23.260;2022-08-24T11:25:51;8.30;;;4.97;;
12792;SDS011;6460;42.684;23.260;2022-08-24T11:28:24;6.33;;;5.33;;
12792;SDS011;6460;42.684;23.260;2022-08-24T11:30:55;6.80;;;5.20;;
12792;SDS011;6460;42.684;23.260;2022-08-24T11:33:25;7.53;;;5.50;;
12792;SDS011;6460;42.684;23.260;2022-08-24T11:35:54;8.90;;;5.03;;
12792;SDS011;6460;42.684;23.260;2022-08-24T11:38:23;5.90;;;5.30;;
12792;SDS011;6460;42.684;23.260;2022-08-24T11:40:52;7.73;;;5.63;;
12792;SDS011;6460;42.684;23.260;2022-08-24T11:43:33;8.07;;;5.33;;
12792;SDS011;6460;42.684;23.260;2022-08-24T11:46:15;6.40;;;5.20;;
12792;SDS011;6460;42.684;23.260;2022-08-24T11:48:53;6.57;;;5.03;;
12792;SDS011;6460;42.684;23.260;2022-08-24T11:51:31;6.20;;;5.60;;
12792;SDS011;6460;42.684;23.260;2022-08-24T11:54:05;6.80;;;4.87;;
12792;SDS011;6460;42.684;23.260;2022-08-24T11:56:38;7.83;;;5.23;;
12792;SDS011;6460;42.684;23.260;2022-08-24T11:59:11;6.57;;;5.47;;
12792;SDS011;6460;42.684;23.260;2022-08-24T12:01:48;6.13;;;5.40;;
12792;SDS011;6460;42.684;23.260;2022-08-24T12:07:19;8.13;;;5.60;;
12792;SDS011;6460;42.684;23.260;2022-08-24T12:09:58;6.20;;;5.57;;
12792;SDS011;6460;42.684;23.260;2022-08-24T12:12:36;8.50;;;6.10;;
12792;SDS011;6460;42.684;23.260;2022-08-24T12:15:10;8.70;;;5.73;;
12792;SDS011;6460;42.684;23.260;2022-08-24T12:17:43;6.73;;;5.60;;
12792;SDS011;6460;42.684;23.260;2022-08-24T12:20:22;9.97;;;6.07;;
12792;SDS011;6460;42.684;23.260;2022-08-24T12:22:54;7.17;;;5.80;;
12792;SDS011;6460;42.684;23.260;2022-08-24T12:25:25;7.93;;;5.60;;
12792;SDS011;6460;42.684;23.260;2022-08-24T12:28:12;8.37;;;6.00;;
12792;SDS011;6460;42.684;23.260;2022-08-24T12:30:46;9.53;;;6.10;;
12792;SDS011;6460;42.684;23.260;2022-08-24T12:33:13;8.20;;;6.23;;
12792;SDS011;6460;42.684;23.260;2022-08-24T12:35:44;9.87;;;5.93;;
12792;SDS011;6460;42.684;23.260;2022-08-24T12:38:16;6.40;;;5.60;;
12792;SDS011;6460;42.684;23.260;2022-08-24T12:40:48;8.50;;;5.80;;
12792;SDS011;6460;42.684;23.260;2022-08-24T12:43:21;8.87;;;6.10;;
12792;SDS011;6460;42.684;23.260;2022-08-24T12:45:54;7.60;;;6.80;;
12792;SDS011;6460;42.684;23.260;2022-08-24T12:48:26;9.93;;;7.50;;
12792;SDS011;6460;42.684;23.260;2022-08-24T12:51:05;8.97;;;7.10;;
12792;SDS011;6460;42.684;23.260;2022-08-24T12:53:48;11.10;;;7.00;;
12792;SDS011;6460;42.684;23.260;2022-08-24T12:59:35;9.17;;;7.00;;
12792;SDS011;6460;42.684;23.260;2022-08-24T13:02:06;8.17;;;6.70;;
12792;SDS011;6460;42.684;23.260;2022-08-24T13:04:53;9.00;;;7.20;;
12792;SDS011;6460;42.684;23.260;2022-08-24T13:07:28;10.57;;;6.80;;
12792;SDS011;6460;42.684;23.260;2022-08-24T13:10:06;7.43;;;6.30;;
12792;SDS011;6460;42.684;23.260;2022-08-24T13:12:50;9.63;;;6.83;;
12792;SDS011;6460;42.684;23.260;2022-08-24T13:15:53;10.33;;;6.47;;
12792;SDS011;6460;42.684;23.260;2022-08-24T13:21:45;10.13;;;6.93;;
12792;SDS011;6460;42.684;23.260;2022-08-24T13:30:53;10.40;;;7.17;;
12792;SDS011;6460;42.684;23.260;2022-08-24T13:33:26;8.80;;;7.00;;
12792;SDS011;6460;42.684;23.260;2022-08-24T13:36:04;9.20;;;5.97;;
12792;SDS011;6460;42.684;23.260;2022-08-24T13:38:59;10.27;;;6.77;;
12792;SDS011;6460;42.684;23.260;2022-08-24T13:41:48;11.27;;;7.40;;
12792;SDS011;6460;42.684;23.260;2022-08-24T13:44:55;10.73;;;6.37;;
12792;SDS011;6460;42.684;23.260;2022-08-24T13:47:50;12.47;;;6.53;;
12792;SDS011;6460;42.684;23.260;2022-08-24T13:50:28;11.83;;;7.20;;
12792;SDS011;6460;42.684;23.260;2022-08-24T13:53:04;11.20;;;7.73;;
12792;SDS011;6460;42.684;23.260;2022-08-24T13:55:51;11.13;;;6.67;;
12792;SDS011;6460;42.684;23.260;2022-08-24T13:58:24;8.43;;;7.20;;
12792;SDS011;6460;42.684;23.260;2022-08-24T14:01:18;11.47;;;7.30;;
12792;SDS011;6460;42.684;23.260;2022-08-24T14:07:05;11.33;;;8.10;;
12792;SDS011;6460;42.684;23.260;2022-08-24T14:09:40;10.53;;;8.00;;
12792;SDS011;6460;42.684;23.260;2022-08-24T14:12:19;8.30;;;7.33;;
12792;SDS011;6460;42.684;23.260;2022-08-24T14:14:56;11.83;;;6.70;;
12792;SDS011;6460;42.684;23.260;2022-08-24T14:17:35;8.73;;;7.23;;
12792;SDS011;6460;42.684;23.260;2022-08-24T14:23:27;11.60;;;7.13;;
12792;SDS011;6460;42.684;23.260;2022-08-24T14:29:31;10.77;;;6.63;;
12792;SDS011;6460;42.684;23.260;2022-08-24T14:38:05;10.17;;;6.70;;
12792;SDS011;6460;42.684;23.260;2022-08-24T14:40:41;11.13;;;6.50;;
12792;SDS011;6460;42.684;23.260;2022-08-24T14:43:34;10.83;;;6.47;;
12792;SDS011;6460;42.684;23.260;2022-08-24T14:46:34;11.73;;;7.13;;
12792;SDS011;6460;42.684;23.260;2022-08-24T14:49:10;15.00;;;6.70;;
12792;SDS011;6460;42.684;23.260;2022-08-24T14:51:50;10.70;;;7.17;;
12792;SDS011;6460;42.684;23.260;2022-08-24T14:54:35;12.53;;;6.57;;
12792;SDS011;6460;42.684;23.260;2022-08-24T14:57:26;12.57;;;6.53;;
12792;SDS011;6460;42.684;23.260;2022-08-24T15:00:08;15.53;;;7.03;;
12792;SDS011;6460;42.684;23.260;2022-08-24T15:05:39;10.90;;;6.47;;
12792;SDS011;6460;42.684;23.260;2022-08-24T15:08:12;13.87;;;7.10;;
12792;SDS011;6460;42.684;23.260;2022-08-24T15:10:54;12.33;;;7.07;;
12792;SDS011;6460;42.684;23.260;2022-08-24T15:13:26;17.10;;;10.77;;
12792;SDS011;6460;42.684;23.260;2022-08-24T15:15:58;13.00;;;7.27;;
12792;SDS011;6460;42.684;23.260;2022-08-24T15:18:31;13.43;;;7.30;;
12792;SDS011;6460;42.684;23.260;2022-08-24T15:21:07;14.37;;;7.23;;
12792;SDS011;6460;42.684;23.260;2022-08-24T15:23:44;13.50;;;7.43;;
12792;SDS011;6460;42.684;23.260;2022-08-24T15:26:26;19.20;;;7.40;;
12792;SDS011;6460;42.684;23.260;2022-08-24T15:29:00;17.13;;;8.20;;
12792;SDS011;6460;42.684;23.260;2022-08-24T15:31:37;13.43;;;7.47;;
12792;SDS011;6460;42.684;23.260;2022-08-24T15:34:05;15.13;;;7.23;;
12792;SDS011;6460;42.684;23.260;2022-08-24T15:36:34;11.97;;;6.63;;
12792;SDS011;6460;42.684;23.260;2022-08-24T15:39:02;18.30;;;7.60;;
12792;SDS011;6460;42.684;23.260;2022-08-24T15:41:32;15.63;;;7.23;;
12792;SDS011;6460;42.684;23.260;2022-08-24T15:44:03;17.53;;;7.43;;
12792;SDS011;6460;42.684;23.260;2022-08-24T15:46:36;16.43;;;7.80;;
12792;SDS011;6460;42.684;23.260;2022-08-24T15:49:05;21.60;;;7.93;;
12792;SDS011;6460;42.684;23.260;2022-08-24T15:51:45;12.73;;;7.17;;
12792;SDS011;6460;42.684;23.260;2022-08-24T15:54:25;14.53;;;7.13;;
12792;SDS011;6460;42.684;23.260;2022-08-24T15:56:56;15.87;;;7.27;;
12792;SDS011;6460;42.684;23.260;2022-08-24T15:59:25;11.67;;;7.03;;
12792;SDS011;6460;42.684;23.260;2022-08-24T16:01:57;16.93;;;7.73;;
12792;SDS011;6460;42.684;23.260;2022-08-24T16:04:59;18.87;;;7.37;;
12792;SDS011;6460;42.684;23.260;2022-08-24T16:10:37;20.10;;;8.83;;